Time;durP1;ratioP1;P1;durP2;ratioP2;P2;SDS_P1;SDS_P2;PMS_P1;PMS_P2;Temp;Humidity;BMP_temperature;BMP_pressure;BME280_temperature;BME280_humidity;BME280_pressure;Samples;Min_cycle;Max_cycle;Signal;HPM_P1;HPM_P2
2021/05/02 00:00:20;;;;;;;1.45;0.88;;;;;;;;;;5000130;28;20111;-71
2021/05/02 00:02:48;;;;;;;1.85;1.10;;;;;;;;;;5001738;28;20066;-71
2021/05/02 00:05:16;;;;;;;2.00;1.00;;;;;;;;;;5001276;28;20069;-71
2021/05/02 00:07:42;;;;;;;1.70;1.10;;;;;;;;;;5000110;28;20061;-71
2021/05/02 00:10:13;;;;;;;1.60;0.90;;;;;;;;;;5003276;28;20046;-71
2021/05/02 00:12:40;;;;;;;1.73;1.00;;;;;;;;;;5005680;28;20065;-71
2021/05/02 00:15:09;;;;;;;1.60;1.00;;;;;;;;;;5004598;28;20128;-71
2021/05/02 00:17:39;;;;;;;2.15;1.15;;;;;;;;;;5001616;28;20192;-71
2021/05/02 00:20:06;;;;;;;1.30;0.98;;;;;;;;;;5020342;28;20061;-72
2021/05/02 00:22:34;;;;;;;1.42;0.98;;;;;;;;;;5003463;28;20780;-71
2021/05/02 00:25:01;;;;;;;1.63;1.02;;;;;;;;;;5003568;28;20159;-70
2021/05/02 00:27:28;;;;;;;1.85;0.98;;;;;;;;;;5005211;28;20058;-70
2021/05/02 00:29:54;;;;;;;3.28;1.13;;;;;;;;;;5004455;28;20069;-71
2021/05/02 00:32:22;;;;;;;2.10;1.17;;;;;;;;;;5002513;28;20069;-70
2021/05/02 00:34:48;;;;;;;1.50;0.85;;;;;;;;;;5005780;28;20097;-70
2021/05/02 00:37:16;;;;;;;2.17;1.05;;;;;;;;;;5001495;28;20119;-70
2021/05/02 00:39:42;;;;;;;2.13;1.20;;;;;;;;;;5004280;28;20135;-70
2021/05/02 00:42:10;;;;;;;1.25;0.88;;;;;;;;;;5004936;28;20489;-71
2021/05/02 00:44:36;;;;;;;2.00;1.20;;;;;;;;;;5003335;28;20076;-70
2021/05/02 00:47:08;;;;;;;1.63;0.80;;;;;;;;;;5019104;28;20061;-72
2021/05/02 00:49:49;;;;;;;1.98;1.13;;;;;;;;;;4986318;28;20061;-72
2021/05/02 00:52:35;;;;;;;1.60;0.93;;;;;;;;;;5001493;28;20123;-71
2021/05/02 00:55:06;;;;;;;1.20;0.80;;;;;;;;;;5002164;28;20503;-71
2021/05/02 00:57:47;;;;;;;1.90;1.20;;;;;;;;;;5018876;28;20069;-71
2021/05/02 01:00:14;;;;;;;2.67;1.17;;;;;;;;;;5002313;28;20905;-70
2021/05/02 01:02:42;;;;;;;1.85;1.10;;;;;;;;;;5004435;28;20753;-71
2021/05/02 01:05:10;;;;;;;1.58;1.00;;;;;;;;;;5002201;28;20080;-71
2021/05/02 01:07:37;;;;;;;1.40;0.85;;;;;;;;;;5003249;28;20120;-70
2021/05/02 01:10:06;;;;;;;1.35;0.95;;;;;;;;;;5002667;28;20073;-71
2021/05/02 01:12:32;;;;;;;1.92;1.00;;;;;;;;;;5002903;28;20117;-71
2021/05/02 01:14:59;;;;;;;1.90;0.90;;;;;;;;;;5002070;28;20226;-72
2021/05/02 01:17:27;;;;;;;2.38;1.13;;;;;;;;;;5004578;28;20103;-71
2021/05/02 01:19:54;;;;;;;2.20;1.00;;;;;;;;;;5003549;28;20654;-71
2021/05/02 01:22:21;;;;;;;5.88;1.13;;;;;;;;;;5003033;28;20061;-71
2021/05/02 01:24:52;;;;;;;1.92;1.08;;;;;;;;;;5001383;28;20124;-71
2021/05/02 01:27:22;;;;;;;1.90;0.90;;;;;;;;;;5004076;28;20119;-71
2021/05/02 01:29:49;;;;;;;1.60;1.00;;;;;;;;;;5002291;28;20077;-71
2021/05/02 01:32:16;;;;;;;2.00;1.00;;;;;;;;;;4999502;28;20100;-71
2021/05/02 01:34:42;;;;;;;1.42;0.88;;;;;;;;;;5003313;28;20081;-70
2021/05/02 01:37:08;;;;;;;1.05;0.90;;;;;;;;;;5003897;28;20144;-70
2021/05/02 01:39:35;;;;;;;1.42;0.90;;;;;;;;;;5002454;28;20534;-70
2021/05/02 01:42:01;;;;;;;1.55;1.00;;;;;;;;;;5003573;28;20143;-71
2021/05/02 01:44:28;;;;;;;1.80;1.10;;;;;;;;;;5002637;28;20057;-70
2021/05/02 01:46:56;;;;;;;2.60;1.08;;;;;;;;;;5003848;28;20069;-70
2021/05/02 01:49:23;;;;;;;2.30;1.00;;;;;;;;;;5002246;28;20294;-71
2021/05/02 01:51:50;;;;;;;1.40;0.88;;;;;;;;;;5003189;28;20128;-72
2021/05/02 01:54:17;;;;;;;1.67;1.00;;;;;;;;;;4999004;28;20120;-70
2021/05/02 01:56:44;;;;;;;1.45;0.90;;;;;;;;;;5003110;28;20057;-70
2021/05/02 01:59:13;;;;;;;2.17;0.80;;;;;;;;;;4999358;28;20066;-71
2021/05/02 02:01:39;;;;;;;1.73;0.95;;;;;;;;;;5002241;28;20061;-70
2021/05/02 02:04:08;;;;;;;1.60;0.95;;;;;;;;;;5002020;28;20054;-71
2021/05/02 02:06:35;;;;;;;1.35;0.82;;;;;;;;;;4995993;28;20080;-71
2021/05/02 02:09:08;;;;;;;1.40;1.00;;;;;;;;;;5002571;28;20064;-71
2021/05/02 02:11:35;;;;;;;1.70;1.00;;;;;;;;;;4997647;28;20049;-72
2021/05/02 02:14:01;;;;;;;1.33;0.90;;;;;;;;;;5002915;28;20135;-71
2021/05/02 02:16:28;;;;;;;2.13;0.98;;;;;;;;;;5002931;28;20065;-71
2021/05/02 02:18:55;;;;;;;1.55;0.93;;;;;;;;;;5003108;28;20556;-71
2021/05/02 02:21:22;;;;;;;1.25;0.90;;;;;;;;;;5002594;28;20088;-71
2021/05/02 02:23:53;;;;;;;1.55;0.90;;;;;;;;;;5001566;28;20112;-71
2021/05/02 02:26:25;;;;;;;2.00;1.02;;;;;;;;;;5033239;28;20034;-71
2021/05/02 02:28:51;;;;;;;;;;;;;;;;;;5005051;28;20076;-71
2021/05/02 02:31:18;;;;;;;2.08;0.85;;;;;;;;;;5014391;28;19967;-71
2021/05/02 02:33:45;;;;;;;1.50;0.90;;;;;;;;;;5017919;28;20490;-71
2021/05/02 02:36:12;;;;;;;1.48;0.93;;;;;;;;;;5002457;28;20073;-71
2021/05/02 02:38:39;;;;;;;1.90;0.90;;;;;;;;;;5002356;28;20112;-71
2021/05/02 02:41:06;;;;;;;1.58;0.88;;;;;;;;;;5001990;28;20053;-70
2021/05/02 02:43:34;;;;;;;1.48;0.90;;;;;;;;;;5003319;28;20069;-71
2021/05/02 02:46:03;;;;;;;1.88;1.00;;;;;;;;;;5000880;28;20216;-71
2021/05/02 02:48:30;;;;;;;1.25;0.90;;;;;;;;;;5000169;28;20098;-71
2021/05/02 02:50:58;;;;;;;1.00;0.77;;;;;;;;;;5002931;28;20100;-71
2021/05/02 02:53:26;;;;;;;1.75;0.90;;;;;;;;;;5002613;28;20040;-72
2021/05/02 02:56:07;;;;;;;1.30;0.80;;;;;;;;;;5001861;28;20155;-71
2021/05/02 02:58:40;;;;;;;1.90;0.90;;;;;;;;;;5001264;28;20092;-71
2021/05/02 03:01:07;;;;;;;1.50;0.88;;;;;;;;;;5000970;28;20738;-71
2021/05/02 03:03:34;;;;;;;1.10;0.82;;;;;;;;;;5001641;28;20822;-71
2021/05/02 03:06:02;;;;;;;1.58;0.80;;;;;;;;;;4999141;28;20076;-71
2021/05/02 03:08:31;;;;;;;1.10;0.70;;;;;;;;;;5003581;28;20061;-71
2021/05/02 03:10:58;;;;;;;1.60;0.90;;;;;;;;;;5000596;28;20069;-74
2021/05/02 03:13:25;;;;;;;1.63;0.82;;;;;;;;;;5002620;28;20156;-72
2021/05/02 03:15:51;;;;;;;1.60;0.70;;;;;;;;;;5002398;28;20137;-72
2021/05/02 03:18:23;;;;;;;1.30;0.80;;;;;;;;;;5000981;28;21734;-71
2021/05/02 03:20:54;;;;;;;2.05;0.90;;;;;;;;;;5001610;28;20065;-71
2021/05/02 03:23:35;;;;;;;2.17;0.90;;;;;;;;;;5001651;28;20458;-70
2021/05/02 03:26:04;;;;;;;1.25;0.80;;;;;;;;;;5001746;28;20060;-71
2021/05/02 03:28:33;;;;;;;1.50;0.98;;;;;;;;;;5014152;28;20065;-70
2021/05/02 03:31:00;;;;;;;1.58;0.90;;;;;;;;;;4999448;28;20065;-72
2021/05/02 03:33:28;;;;;;;1.10;0.80;;;;;;;;;;5002561;28;20042;-71
2021/05/02 03:35:54;;;;;;;1.85;0.95;;;;;;;;;;5001304;28;20093;-71
2021/05/02 03:38:44;;;;;;;1.42;0.80;;;;;;;;;;5001145;28;20108;-71
2021/05/02 03:41:11;;;;;;;2.03;0.80;;;;;;;;;;5008402;28;20097;-70
2021/05/02 03:43:38;;;;;;;1.83;0.85;;;;;;;;;;5002236;28;20056;-70
2021/05/02 03:46:05;;;;;;;1.23;0.75;;;;;;;;;;5000052;28;20053;-71
2021/05/02 03:48:33;;;;;;;1.85;0.70;;;;;;;;;;5003670;28;20033;-71
2021/05/02 03:51:00;;;;;;;1.95;0.90;;;;;;;;;;5015990;28;20050;-71
2021/05/02 03:53:26;;;;;;;2.25;0.93;;;;;;;;;;5001552;28;20774;-71
2021/05/02 03:55:53;;;;;;;2.17;1.00;;;;;;;;;;5002414;28;20046;-72
2021/05/02 03:58:19;;;;;;;1.58;0.90;;;;;;;;;;5013569;28;20060;-71
2021/05/02 04:00:46;;;;;;;1.33;0.88;;;;;;;;;;5001623;28;20474;-70
2021/05/02 04:03:14;;;;;;;1.63;0.80;;;;;;;;;;5011352;28;20069;-70
2021/05/02 04:05:41;;;;;;;1.65;0.80;;;;;;;;;;4999994;28;20038;-70
2021/05/02 04:08:10;;;;;;;1.80;0.80;;;;;;;;;;4998082;28;20559;-70
2021/05/02 04:10:36;;;;;;;2.65;0.90;;;;;;;;;;5002202;28;20069;-70
2021/05/02 04:13:03;;;;;;;1.05;0.73;;;;;;;;;;5000247;28;20092;-71
2021/05/02 04:15:29;;;;;;;1.77;0.75;;;;;;;;;;4996959;28;20050;-70
2021/05/02 04:17:56;;;;;;;1.00;0.70;;;;;;;;;;4999887;28;20622;-70
2021/05/02 04:20:22;;;;;;;2.10;0.90;;;;;;;;;;5001361;28;20041;-70
2021/05/02 04:22:49;;;;;;;1.63;0.93;;;;;;;;;;4999174;28;20070;-72
2021/05/02 04:25:15;;;;;;;1.40;0.80;;;;;;;;;;5001761;28;20064;-72
2021/05/02 04:27:42;;;;;;;1.27;0.88;;;;;;;;;;5002077;28;20105;-72
2021/05/02 04:30:09;;;;;;;1.33;0.80;;;;;;;;;;5000041;28;20065;-72
2021/05/02 04:32:35;;;;;;;1.85;0.80;;;;;;;;;;5000312;28;20069;-72
2021/05/02 04:35:01;;;;;;;1.17;0.80;;;;;;;;;;5015551;28;20057;-72
2021/05/02 04:37:28;;;;;;;1.27;0.80;;;;;;;;;;5001131;28;20524;-72
2021/05/02 04:39:54;;;;;;;1.15;0.70;;;;;;;;;;5002850;28;20045;-71
2021/05/02 04:42:21;;;;;;;1.80;0.80;;;;;;;;;;5000886;28;20073;-71
2021/05/02 04:44:47;;;;;;;1.40;0.82;;;;;;;;;;5000410;28;20100;-71
2021/05/02 04:47:20;;;;;;;1.38;0.70;;;;;;;;;;4993305;28;20062;-71
2021/05/02 04:49:47;;;;;;;2.63;1.10;;;;;;;;;;5002518;28;20116;-72
2021/05/02 04:52:14;;;;;;;0.80;0.60;;;;;;;;;;4999270;28;20060;-71
2021/05/02 04:54:41;;;;;;;1.52;0.88;;;;;;;;;;5002134;28;20076;-71
2021/05/02 04:57:08;;;;;;;1.25;0.77;;;;;;;;;;4984345;28;20053;-72
2021/05/02 04:59:34;;;;;;;1.10;0.77;;;;;;;;;;5004487;28;20123;-71
2021/05/02 05:02:01;;;;;;;1.58;1.00;;;;;;;;;;5003202;28;20112;-71
2021/05/02 05:04:28;;;;;;;1.10;0.80;;;;;;;;;;5006091;28;20065;-72
2021/05/02 05:06:54;;;;;;;1.60;0.90;;;;;;;;;;5002890;28;20038;-71
2021/05/02 05:09:21;;;;;;;2.42;0.90;;;;;;;;;;5003637;28;20053;-71
2021/05/02 05:11:47;;;;;;;2.03;0.80;;;;;;;;;;5019471;28;20069;-71
2021/05/02 05:14:14;;;;;;;1.90;0.85;;;;;;;;;;5001864;28;20224;-71
2021/05/02 05:16:40;;;;;;;1.58;0.88;;;;;;;;;;5003949;28;20125;-70
2021/05/02 05:19:07;;;;;;;1.55;0.90;;;;;;;;;;5008380;28;20129;-71
2021/05/02 05:21:33;;;;;;;2.05;0.80;;;;;;;;;;5004115;28;20088;-70
2021/05/02 05:23:59;;;;;;;1.38;0.93;;;;;;;;;;5003402;28;20509;-71
2021/05/02 05:26:26;;;;;;;1.52;0.80;;;;;;;;;;5003781;28;20062;-71
2021/05/02 05:28:52;;;;;;;1.50;0.88;;;;;;;;;;5001513;28;20058;-70
2021/05/02 05:31:18;;;;;;;1.42;0.88;;;;;;;;;;5003546;28;20076;-70
2021/05/02 05:33:45;;;;;;;1.35;0.73;;;;;;;;;;5003465;28;20050;-71
2021/05/02 05:36:12;;;;;;;1.48;0.70;;;;;;;;;;5003736;28;20575;-72
2021/05/02 05:38:38;;;;;;;1.73;0.90;;;;;;;;;;5000589;28;20074;-71
2021/05/02 05:41:04;;;;;;;1.08;0.70;;;;;;;;;;5001766;28;20072;-71
2021/05/02 05:43:31;;;;;;;1.88;1.00;;;;;;;;;;5000935;28;20034;-72
2021/05/02 05:45:57;;;;;;;1.40;0.90;;;;;;;;;;4984608;28;20088;-71
2021/05/02 05:48:23;;;;;;;1.38;0.88;;;;;;;;;;5002415;28;20258;-71
2021/05/02 05:50:50;;;;;;;1.05;0.90;;;;;;;;;;5002326;28;20066;-72
2021/05/02 05:53:17;;;;;;;1.10;0.80;;;;;;;;;;5003590;28;20065;-72
2021/05/02 05:55:43;;;;;;;2.20;1.00;;;;;;;;;;4996720;28;20074;-72
2021/05/02 05:58:10;;;;;;;1.77;0.90;;;;;;;;;;5002517;28;20065;-72
2021/05/02 06:00:37;;;;;;;1.80;0.80;;;;;;;;;;5003194;28;20066;-72
2021/05/02 06:03:03;;;;;;;1.73;0.90;;;;;;;;;;5002572;28;20040;-73
2021/05/02 06:05:30;;;;;;;1.40;0.80;;;;;;;;;;5004657;28;20066;-73
2021/05/02 06:07:56;;;;;;;1.13;0.77;;;;;;;;;;5003959;28;20135;-72
2021/05/02 06:10:22;;;;;;;1.30;0.80;;;;;;;;;;5002993;28;20062;-73
2021/05/02 06:12:49;;;;;;;1.40;0.90;;;;;;;;;;5003101;28;20076;-73
2021/05/02 06:15:16;;;;;;;1.15;0.70;;;;;;;;;;5002344;28;20457;-73
2021/05/02 06:17:45;;;;;;;1.20;0.77;;;;;;;;;;5002956;28;20131;-73
2021/05/02 06:20:12;;;;;;;1.92;0.95;;;;;;;;;;5006993;28;20116;-73
2021/05/02 06:22:38;;;;;;;1.15;0.80;;;;;;;;;;5001278;28;20066;-73
2021/05/02 06:25:07;;;;;;;1.25;0.80;;;;;;;;;;5002730;28;20038;-72
2021/05/02 06:27:33;;;;;;;2.30;0.80;;;;;;;;;;5006417;28;20680;-72
2021/05/02 06:30:00;;;;;;;1.25;0.82;;;;;;;;;;4996054;28;20462;-73
2021/05/02 06:32:26;;;;;;;1.67;0.90;;;;;;;;;;4986265;28;20128;-73
2021/05/02 06:34:55;;;;;;;1.33;0.80;;;;;;;;;;5004059;28;20073;-72
2021/05/02 06:37:21;;;;;;;1.80;1.02;;;;;;;;;;5000044;28;20065;-73
2021/05/02 06:39:48;;;;;;;1.42;0.80;;;;;;;;;;5001458;28;20061;-73
2021/05/02 06:42:15;;;;;;;1.15;0.82;;;;;;;;;;4999286;28;20034;-73
2021/05/02 06:44:41;;;;;;;2.10;0.82;;;;;;;;;;5001410;28;20520;-73
2021/05/02 06:47:08;;;;;;;1.20;0.90;;;;;;;;;;4997926;28;20099;-74
2021/05/02 06:49:34;;;;;;;1.83;0.73;;;;;;;;;;5002353;28;20056;-74
2021/05/02 06:52:01;;;;;;;1.55;0.95;;;;;;;;;;4999522;28;20053;-71
2021/05/02 06:54:27;;;;;;;1.58;0.90;;;;;;;;;;5001597;28;20061;-73
2021/05/02 06:56:54;;;;;;;1.13;0.70;;;;;;;;;;5002140;28;20065;-70
2021/05/02 06:59:20;;;;;;;1.15;0.70;;;;;;;;;;4998706;28;20069;-74
2021/05/02 07:01:46;;;;;;;3.10;0.80;;;;;;;;;;5000936;28;20088;-73
2021/05/02 07:04:13;;;;;;;1.48;0.95;;;;;;;;;;5001554;28;20053;-73
2021/05/02 07:06:39;;;;;;;1.80;0.90;;;;;;;;;;5000542;28;20074;-73
2021/05/02 07:09:06;;;;;;;1.70;0.77;;;;;;;;;;5000971;28;20070;-74
2021/05/02 07:11:33;;;;;;;1.88;0.80;;;;;;;;;;5003341;28;20490;-73
2021/05/02 07:14:02;;;;;;;1.10;0.70;;;;;;;;;;5001045;28;20089;-73
2021/05/02 07:16:28;;;;;;;2.00;0.80;;;;;;;;;;4999423;28;20045;-74
2021/05/02 07:18:55;;;;;;;2.50;0.90;;;;;;;;;;5000662;28;20062;-73
2021/05/02 07:21:21;;;;;;;1.55;0.85;;;;;;;;;;4999834;28;20085;-71
2021/05/02 07:23:50;;;;;;;1.67;0.80;;;;;;;;;;5001422;28;20493;-71
2021/05/02 07:26:17;;;;;;;3.03;0.80;;;;;;;;;;4997134;28;20069;-73
2021/05/02 07:28:43;;;;;;;3.13;1.05;;;;;;;;;;4999398;28;20123;-72
2021/05/02 07:31:11;;;;;;;1.50;0.80;;;;;;;;;;4997986;28;20583;-71
2021/05/02 07:33:38;;;;;;;2.03;0.80;;;;;;;;;;5001852;28;20053;-72
2021/05/02 07:36:05;;;;;;;3.72;0.90;;;;;;;;;;4979694;28;20058;-72
2021/05/02 07:38:31;;;;;;;2.33;0.88;;;;;;;;;;5001220;28;20065;-72
2021/05/02 07:40:58;;;;;;;1.83;0.80;;;;;;;;;;4983473;28;20105;-72
2021/05/02 07:43:24;;;;;;;2.78;0.90;;;;;;;;;;4999861;28;20170;-71
2021/05/02 07:45:51;;;;;;;1.95;0.90;;;;;;;;;;5001319;28;20119;-72
2021/05/02 07:48:18;;;;;;;2.63;0.80;;;;;;;;;;5000285;28;20112;-73
2021/05/02 07:50:44;;;;;;;1.67;0.70;;;;;;;;;;5000156;28;20065;-73
2021/05/02 07:53:11;;;;;;;1.30;0.73;;;;;;;;;;4998896;28;20779;-72
2021/05/02 07:55:37;;;;;;;1.00;0.60;;;;;;;;;;5009894;28;20065;-71
2021/05/02 07:58:04;;;;;;;1.92;0.82;;;;;;;;;;5001177;28;20070;-74
2021/05/02 08:00:30;;;;;;;1.77;0.80;;;;;;;;;;4997803;28;20057;-73
2021/05/02 08:02:57;;;;;;;2.35;0.88;;;;;;;;;;4999698;28;20509;-74
2021/05/02 08:05:23;;;;;;;3.35;0.80;;;;;;;;;;5000508;28;20064;-73
2021/05/02 08:07:50;;;;;;;1.23;0.70;;;;;;;;;;5000851;28;20479;-73
2021/05/02 08:10:18;;;;;;;1.15;0.80;;;;;;;;;;5001203;28;20634;-73
2021/05/02 08:12:44;;;;;;;1.20;0.60;;;;;;;;;;5002576;28;20069;-73
2021/05/02 08:15:11;;;;;;;1.17;0.70;;;;;;;;;;4998634;28;20497;-73
2021/05/02 08:17:37;;;;;;;1.90;0.80;;;;;;;;;;4982396;28;20260;-73
2021/05/02 08:20:05;;;;;;;1.00;0.70;;;;;;;;;;5001505;28;20069;-72
2021/05/02 08:22:32;;;;;;;1.27;0.80;;;;;;;;;;5015167;28;20069;-73
2021/05/02 08:24:58;;;;;;;2.47;0.90;;;;;;;;;;5002005;28;20450;-73
2021/05/02 08:27:24;;;;;;;1.40;0.80;;;;;;;;;;5031248;28;20069;-72
2021/05/02 08:29:51;;;;;;;1.50;0.80;;;;;;;;;;4999026;28;20127;-75
2021/05/02 08:32:17;;;;;;;1.50;0.75;;;;;;;;;;5004859;28;20149;-74
2021/05/02 08:34:44;;;;;;;1.80;0.80;;;;;;;;;;5002474;28;20062;-73
2021/05/02 08:37:10;;;;;;;1.25;0.80;;;;;;;;;;5002809;28;20524;-72
2021/05/02 08:39:36;;;;;;;1.10;0.88;;;;;;;;;;5004767;28;20081;-74
2021/05/02 08:42:03;;;;;;;1.15;0.70;;;;;;;;;;4986252;28;20058;-72
2021/05/02 08:44:30;;;;;;;1.50;0.70;;;;;;;;;;5005261;28;20835;-72
2021/05/02 08:46:57;;;;;;;2.63;0.80;;;;;;;;;;5003961;28;20088;-72
2021/05/02 08:49:23;;;;;;;3.22;1.00;;;;;;;;;;5005561;28;20049;-73
2021/05/02 08:51:50;;;;;;;5.45;1.05;;;;;;;;;;5018775;28;20115;-73
2021/05/02 08:54:17;;;;;;;2.22;1.15;;;;;;;;;;5003820;28;20065;-71
2021/05/02 08:56:43;;;;;;;4.32;0.93;;;;;;;;;;5005359;28;20073;-72
2021/05/02 08:59:10;;;;;;;1.63;0.80;;;;;;;;;;5004261;28;20065;-74
2021/05/02 09:01:36;;;;;;;2.13;0.88;;;;;;;;;;5001157;28;20100;-73
2021/05/02 09:04:07;;;;;;;2.35;0.93;;;;;;;;;;5003261;28;20044;-72
2021/05/02 09:06:34;;;;;;;4.80;1.30;;;;;;;;;;5003107;28;20426;-75
2021/05/02 09:09:11;;;;;;;4.53;1.52;;;;;;;;;;5015896;28;20042;-75
2021/05/02 09:11:42;;;;;;;5.72;1.40;;;;;;;;;;4986542;28;20088;-73
2021/05/02 09:14:11;;;;;;;3.93;1.53;;;;;;;;;;5003337;28;20519;-74
2021/05/02 09:16:45;;;;;;;4.82;1.42;;;;;;;;;;5002066;28;20436;-73
2021/05/02 09:19:11;;;;;;;4.97;1.52;;;;;;;;;;5000280;28;20065;-73
2021/05/02 09:21:38;;;;;;;3.28;1.30;;;;;;;;;;5002962;28;20038;-74
2021/05/02 09:24:08;;;;;;;4.28;1.10;;;;;;;;;;4998923;28;20506;-74
2021/05/02 09:26:36;;;;;;;4.72;1.30;;;;;;;;;;5000492;28;20131;-73
2021/05/02 09:29:06;;;;;;;3.28;1.10;;;;;;;;;;4984201;28;20184;-74
2021/05/02 09:31:34;;;;;;;3.58;1.20;;;;;;;;;;4998642;28;20073;-75
2021/05/02 09:34:19;;;;;;;3.78;1.30;;;;;;;;;;5012251;28;20069;-76
2021/05/02 09:36:55;;;;;;;4.47;1.00;;;;;;;;;;5003463;28;20120;-75
2021/05/02 09:39:41;;;;;;;3.63;1.20;;;;;;;;;;5002277;28;20066;-74
2021/05/02 09:42:11;;;;;;;2.63;0.93;;;;;;;;;;5000962;28;20108;-74
2021/05/02 09:44:39;;;;;;;3.13;1.13;;;;;;;;;;5002598;28;20041;-73
2021/05/02 09:47:21;;;;;;;4.13;1.45;;;;;;;;;;5018014;28;20092;-76
2021/05/02 09:50:03;;;;;;;4.95;1.30;;;;;;;;;;5002961;28;20061;-73
2021/05/02 09:52:29;;;;;;;;;;;;;;;;;;5030817;28;20108;-74
2021/05/02 09:55:16;;;;;;;3.65;1.10;;;;;;;;;;5001063;28;19956;-73
2021/05/02 09:57:50;;;;;;;3.67;1.00;;;;;;;;;;5016200;28;20111;-73
2021/05/02 10:00:25;;;;;;;2.63;1.15;;;;;;;;;;5000465;28;20458;-74
2021/05/02 10:02:51;;;;;;;2.03;0.80;;;;;;;;;;5030766;28;20140;-73
2021/05/02 10:05:18;;;;;;;4.93;1.17;;;;;;;;;;5007513;28;20155;-75
2021/05/02 10:07:44;;;;;;;3.08;1.02;;;;;;;;;;4983230;28;20034;-74
2021/05/02 10:10:11;;;;;;;2.03;1.00;;;;;;;;;;5001262;28;21865;-74
2021/05/02 10:12:40;;;;;;;4.57;1.27;;;;;;;;;;5018036;28;20673;-75
2021/05/02 10:15:07;;;;;;;4.78;1.20;;;;;;;;;;5002046;28;20092;-74
2021/05/02 10:17:34;;;;;;;4.85;1.17;;;;;;;;;;5001844;28;20065;-73
2021/05/02 10:20:01;;;;;;;6.43;2.75;;;;;;;;;;5000930;28;20072;-74
2021/05/02 10:22:28;;;;;;;8.52;2.78;;;;;;;;;;5003361;28;20057;-74
2021/05/02 10:24:55;;;;;;;6.47;2.45;;;;;;;;;;4983136;28;20112;-74
2021/05/02 10:27:21;;;;;;;8.77;2.30;;;;;;;;;;5003096;28;20141;-73
2021/05/02 10:29:48;;;;;;;8.57;2.25;;;;;;;;;;5003077;28;20083;-73
2021/05/02 10:32:15;;;;;;;9.35;2.47;;;;;;;;;;5000964;28;20127;-74
2021/05/02 10:34:43;;;;;;;12.85;2.60;;;;;;;;;;5017488;28;20684;-73
2021/05/02 10:37:25;;;;;;;9.82;2.28;;;;;;;;;;5016315;28;20077;-73
2021/05/02 10:40:14;;;;;;;4.40;1.70;;;;;;;;;;5002270;28;20525;-74
2021/05/02 10:42:51;;;;;;;4.65;1.92;;;;;;;;;;5015437;28;20080;-74
2021/05/02 10:45:46;;;;;;;4.50;1.60;;;;;;;;;;5016813;28;20065;-73
2021/05/02 10:48:16;;;;;;;5.45;1.70;;;;;;;;;;5001810;28;20132;-75
2021/05/02 10:50:46;;;;;;;6.30;2.10;;;;;;;;;;5014540;28;20551;-73
2021/05/02 10:53:14;;;;;;;5.05;1.95;;;;;;;;;;4999386;28;20175;-73
2021/05/02 10:55:49;;;;;;;5.55;1.75;;;;;;;;;;5001938;28;20129;-72
2021/05/02 10:58:26;;;;;;;6.22;2.03;;;;;;;;;;4998446;28;20069;-73
2021/05/02 11:01:02;;;;;;;3.92;1.48;;;;;;;;;;5001530;28;20136;-75
2021/05/02 11:03:37;;;;;;;5.32;1.50;;;;;;;;;;4998531;28;20061;-73
2021/05/02 11:06:05;;;;;;;3.67;1.65;;;;;;;;;;5014783;28;20065;-72
2021/05/02 11:08:49;;;;;;;5.85;1.90;;;;;;;;;;5000547;28;20872;-72
2021/05/02 11:11:35;;;;;;;3.20;1.48;;;;;;;;;;5000490;28;20497;-72
2021/05/02 11:14:08;;;;;;;3.72;1.58;;;;;;;;;;5000571;28;20041;-73
2021/05/02 11:16:41;;;;;;;3.63;1.50;;;;;;;;;;5000715;28;20061;-72
2021/05/02 11:19:12;;;;;;;5.28;1.48;;;;;;;;;;4999120;28;20127;-75
2021/05/02 11:21:51;;;;;;;3.47;1.42;;;;;;;;;;5001064;28;20107;-72
2021/05/02 11:24:19;;;;;;;4.95;1.30;;;;;;;;;;5015936;28;20069;-73
2021/05/02 11:26:59;;;;;;;2.95;1.25;;;;;;;;;;5002188;28;20123;-75
2021/05/02 11:29:38;;;;;;;3.50;1.60;;;;;;;;;;5000114;28;20065;-74
2021/05/02 11:32:05;;;;;;;2.80;1.38;;;;;;;;;;4982083;28;20066;-75
2021/05/02 11:34:50;;;;;;;4.68;1.58;;;;;;;;;;5001449;28;20995;-74
2021/05/02 11:37:35;;;;;;;3.47;1.17;;;;;;;;;;5000463;28;20045;-74
2021/05/02 11:40:02;;;;;;;4.30;1.35;;;;;;;;;;4999481;28;20050;-74
2021/05/02 11:42:28;;;;;;;5.43;1.33;;;;;;;;;;5002111;28;20096;-74
2021/05/02 11:44:55;;;;;;;2.72;1.17;;;;;;;;;;5001618;28;20509;-74
2021/05/02 11:47:21;;;;;;;3.15;1.15;;;;;;;;;;4999514;28;20069;-74
2021/05/02 11:49:48;;;;;;;3.45;1.40;;;;;;;;;;5002165;28;20521;-73
2021/05/02 11:52:14;;;;;;;4.22;1.40;;;;;;;;;;5002148;28;20117;-73
2021/05/02 11:54:47;;;;;;;2.35;1.38;;;;;;;;;;5000055;28;20065;-74
2021/05/02 11:57:13;;;;;;;2.75;1.30;;;;;;;;;;5001392;28;20078;-73
2021/05/02 11:59:52;;;;;;;3.97;1.23;;;;;;;;;;5000150;28;20555;-74
2021/05/02 12:02:18;;;;;;;5.47;1.40;;;;;;;;;;5000055;28;20137;-73
2021/05/02 12:04:45;;;;;;;3.25;1.20;;;;;;;;;;5004522;28;20111;-74
2021/05/02 12:07:11;;;;;;;3.05;1.00;;;;;;;;;;4989082;28;20485;-74
2021/05/02 12:09:41;;;;;;;3.13;1.10;;;;;;;;;;5002430;28;20038;-73
2021/05/02 12:12:10;;;;;;;1.65;0.90;;;;;;;;;;5004107;28;20058;-75
2021/05/02 12:14:37;;;;;;;2.75;1.10;;;;;;;;;;5003899;28;20560;-74
2021/05/02 12:17:03;;;;;;;3.03;1.20;;;;;;;;;;5002914;28;20089;-72
2021/05/02 12:19:31;;;;;;;2.88;1.40;;;;;;;;;;5004150;28;20058;-73
2021/05/02 12:21:58;;;;;;;3.45;1.45;;;;;;;;;;5002671;28;20499;-72
2021/05/02 12:24:28;;;;;;;3.85;1.27;;;;;;;;;;4984814;28;20054;-74
2021/05/02 12:27:00;;;;;;;3.05;1.20;;;;;;;;;;5004071;28;20100;-72
2021/05/02 12:29:28;;;;;;;2.53;1.30;;;;;;;;;;5003485;28;20061;-72
2021/05/02 12:32:06;;;;;;;2.78;1.40;;;;;;;;;;5003335;28;20077;-74
2021/05/02 12:34:37;;;;;;;4.72;1.58;;;;;;;;;;5000460;28;20981;-72
2021/05/02 12:37:23;;;;;;;3.58;1.35;;;;;;;;;;5004697;28;20061;-74
2021/05/02 12:39:53;;;;;;;3.85;1.50;;;;;;;;;;5001999;28;20482;-73
2021/05/02 12:42:34;;;;;;;1.63;1.10;;;;;;;;;;5004697;28;20069;-73
2021/05/02 12:45:00;;;;;;;2.55;1.00;;;;;;;;;;4985424;28;20551;-73
2021/05/02 12:47:27;;;;;;;2.05;1.13;;;;;;;;;;5004299;28;20050;-74
2021/05/02 12:49:55;;;;;;;4.20;1.25;;;;;;;;;;5006743;28;20104;-74
2021/05/02 12:52:21;;;;;;;1.50;0.75;;;;;;;;;;5003091;28;20057;-73
2021/05/02 12:54:47;;;;;;;3.55;1.23;;;;;;;;;;5005128;28;20057;-73
2021/05/02 12:57:16;;;;;;;3.28;1.00;;;;;;;;;;5005273;28;20233;-74
2021/05/02 13:02:12;;;;;;;2.40;1.13;;;;;;;;;;5003874;28;20076;-74
2021/05/02 13:05:01;;;;;;;3.28;1.00;;;;;;;;;;5005202;28;20034;-75
2021/05/02 13:07:32;;;;;;;1.90;1.00;;;;;;;;;;5004656;28;20061;-74
2021/05/02 13:09:59;;;;;;;2.85;1.10;;;;;;;;;;5004682;28;20128;-73
2021/05/02 13:12:26;;;;;;;1.58;0.90;;;;;;;;;;5002715;28;20041;-74
2021/05/02 13:15:03;;;;;;;3.83;1.08;;;;;;;;;;5005237;28;20065;-73
2021/05/02 13:17:30;;;;;;;1.95;1.00;;;;;;;;;;5003976;28;20049;-74
2021/05/02 13:20:03;;;;;;;1.77;1.00;;;;;;;;;;5004965;28;20147;-73
2021/05/02 13:22:30;;;;;;;2.80;1.13;;;;;;;;;;5002402;28;20038;-73
2021/05/02 13:25:06;;;;;;;2.65;0.98;;;;;;;;;;5003667;28;20120;-73
2021/05/02 13:27:34;;;;;;;2.85;1.20;;;;;;;;;;5033703;28;21085;-73
2021/05/02 13:30:00;;;;;;;2.10;0.90;;;;;;;;;;5000478;28;20326;-73
2021/05/02 13:32:26;;;;;;;2.63;1.33;;;;;;;;;;5005782;28;20100;-73
2021/05/02 13:34:53;;;;;;;2.30;0.80;;;;;;;;;;5001328;28;20729;-73
2021/05/02 13:37:19;;;;;;;2.22;0.93;;;;;;;;;;5006238;28;20108;-74
2021/05/02 13:39:46;;;;;;;2.60;1.13;;;;;;;;;;5001562;28;20686;-74
2021/05/02 13:42:12;;;;;;;3.85;1.10;;;;;;;;;;5001867;28;20065;-73
2021/05/02 13:44:38;;;;;;;1.58;0.93;;;;;;;;;;5002260;28;20057;-73
2021/05/02 13:47:05;;;;;;;2.10;0.90;;;;;;;;;;5002381;28;20103;-73
2021/05/02 13:49:31;;;;;;;2.05;1.00;;;;;;;;;;5002247;28;20110;-73
2021/05/02 13:51:58;;;;;;;2.15;0.80;;;;;;;;;;5020380;28;20065;-73
2021/05/02 13:54:25;;;;;;;2.75;1.00;;;;;;;;;;5004733;28;20132;-73
2021/05/02 13:56:51;;;;;;;2.15;1.05;;;;;;;;;;5004642;28;20200;-74
2021/05/02 13:59:17;;;;;;;1.95;0.95;;;;;;;;;;4984780;28;20029;-74
2021/05/02 14:01:44;;;;;;;2.42;0.95;;;;;;;;;;5004714;28;20549;-74
2021/05/02 14:04:10;;;;;;;3.45;1.17;;;;;;;;;;4994174;28;20093;-73
2021/05/02 14:06:38;;;;;;;1.95;1.13;;;;;;;;;;5001812;28;20451;-74
2021/05/02 14:09:04;;;;;;;2.95;0.95;;;;;;;;;;5003814;28;20066;-74
2021/05/02 14:11:31;;;;;;;1.88;0.70;;;;;;;;;;4998353;28;20057;-73
2021/05/02 14:13:58;;;;;;;2.90;0.98;;;;;;;;;;5003166;28;20064;-73
2021/05/02 14:16:24;;;;;;;1.52;0.90;;;;;;;;;;5000687;28;20061;-73
2021/05/02 14:18:50;;;;;;;1.17;0.80;;;;;;;;;;4999326;28;20070;-73
2021/05/02 14:21:17;;;;;;;2.33;0.90;;;;;;;;;;5000963;28;20069;-74
2021/05/02 14:23:43;;;;;;;1.88;0.82;;;;;;;;;;5004617;28;20064;-73
2021/05/02 14:26:10;;;;;;;1.55;0.90;;;;;;;;;;5002562;28;20061;-73
2021/05/02 14:28:37;;;;;;;2.90;0.80;;;;;;;;;;5003137;28;20054;-74
2021/05/02 14:31:03;;;;;;;1.92;1.00;;;;;;;;;;5002077;28;20083;-75
2021/05/02 14:33:30;;;;;;;1.40;0.70;;;;;;;;;;5002454;28;20053;-74
2021/05/02 14:35:57;;;;;;;1.50;0.95;;;;;;;;;;5002188;28;20569;-74
2021/05/02 14:38:25;;;;;;;1.63;0.93;;;;;;;;;;5002188;28;20121;-72
2021/05/02 14:40:52;;;;;;;1.70;0.90;;;;;;;;;;5004075;28;20061;-74
2021/05/02 14:43:18;;;;;;;2.08;0.90;;;;;;;;;;5002302;28;20053;-74
2021/05/02 14:45:45;;;;;;;2.40;0.80;;;;;;;;;;5007881;28;20584;-74
2021/05/02 14:48:11;;;;;;;2.58;0.90;;;;;;;;;;5000968;28;20098;-75
2021/05/02 14:50:38;;;;;;;1.85;0.77;;;;;;;;;;5001134;28;20057;-74
2021/05/02 14:53:04;;;;;;;1.90;1.00;;;;;;;;;;5001894;28;20065;-73